Time;durP1;ratioP1;P1;durP2;ratioP2;P2;SDS_P1;SDS_P2;PMS_P1;PMS_P2;Temp;Humidity;BMP_temperature;BMP_pressure;BME280_temperature;BME280_humidity;BME280_pressure;Samples;Min_cycle;Max_cycle;Signal;HPM_P1;HPM_P2
2023/12/09 00:00:10;;;;;;;75.78;30.88;;;;;;;;;;2090378;28;20076;-60
2023/12/09 00:01:11;;;;;;;79.22;32.35;;;;;;;;;;2090432;28;20036;-60
2023/12/09 00:02:11;;;;;;;77.28;31.17;;;;;;;;;;2089906;28;20438;-60
2023/12/09 00:03:12;;;;;;;77.38;28.70;;;;;;;;;;2090773;28;20032;-61
2023/12/09 00:04:13;;;;;;;71.30;28.95;;;;;;;;;;2090453;28;20386;-60
2023/12/09 00:05:14;;;;;;;81.45;31.67;;;;;;;;;;2090427;28;20493;-61
2023/12/09 00:06:15;;;;;;;75.55;29.70;;;;;;;;;;2090727;28;20082;-61
2023/12/09 00:07:15;;;;;;;71.47;29.27;;;;;;;;;;2090497;28;20377;-61
2023/12/09 00:08:16;;;;;;;71.88;27.73;;;;;;;;;;2090261;28;20493;-61
2023/12/09 00:09:19;;;;;;;65.40;27.95;;;;;;;;;;2090409;28;20021;-61
2023/12/09 00:10:20;;;;;;;68.80;27.90;;;;;;;;;;2090402;28;20052;-61
2023/12/09 00:11:21;;;;;;;73.45;30.00;;;;;;;;;;2090779;28;20044;-60
2023/12/09 00:12:22;;;;;;;82.22;30.40;;;;;;;;;;2090207;28;20044;-61
2023/12/09 00:13:22;;;;;;;69.57;27.63;;;;;;;;;;2090465;28;20369;-60
2023/12/09 00:14:23;;;;;;;71.38;28.50;;;;;;;;;;2090497;28;20508;-61
2023/12/09 00:15:24;;;;;;;74.95;29.88;;;;;;;;;;2090432;28;20029;-61
2023/12/09 00:16:24;;;;;;;73.72;29.50;;;;;;;;;;2090041;28;20036;-61
2023/12/09 00:17:26;;;;;;;68.95;27.10;;;;;;;;;;2090636;28;20037;-60
2023/12/09 00:18:26;;;;;;;71.22;29.40;;;;;;;;;;2090491;28;20028;-61
2023/12/09 00:19:27;;;;;;;66.75;23.60;;;;;;;;;;2090355;28;20397;-61
2023/12/09 00:20:28;;;;;;;64.97;25.00;;;;;;;;;;2090030;28;20528;-61
2023/12/09 00:21:29;;;;;;;71.90;28.33;;;;;;;;;;2090333;28;20044;-61
2023/12/09 00:22:29;;;;;;;70.13;27.20;;;;;;;;;;2090509;28;20043;-61
2023/12/09 00:23:30;;;;;;;70.38;28.70;;;;;;;;;;2090542;28;20057;-61
2023/12/09 00:24:31;;;;;;;70.57;28.73;;;;;;;;;;2090984;28;20492;-60
2023/12/09 00:25:32;;;;;;;68.13;25.70;;;;;;;;;;2090353;28;20094;-61
2023/12/09 00:26:32;;;;;;;67.88;27.55;;;;;;;;;;2090439;28;20408;-61
2023/12/09 00:27:36;;;;;;;65.15;24.63;;;;;;;;;;2090529;28;20041;-61
2023/12/09 00:28:37;;;;;;;67.47;25.15;;;;;;;;;;2089819;28;20485;-61
2023/12/09 00:29:37;;;;;;;75.80;27.48;;;;;;;;;;2090690;28;20045;-61
2023/12/09 00:30:38;;;;;;;57.90;22.63;;;;;;;;;;2090298;28;20044;-61
2023/12/09 00:31:39;;;;;;;76.82;26.92;;;;;;;;;;2090707;28;20124;-61
2023/12/09 00:32:40;;;;;;;71.93;27.60;;;;;;;;;;2090388;28;20037;-61
2023/12/09 00:33:40;;;;;;;67.85;25.98;;;;;;;;;;2090278;28;20051;-61
2023/12/09 00:34:41;;;;;;;72.95;29.35;;;;;;;;;;2090553;28;20029;-61
2023/12/09 00:35:42;;;;;;;55.83;22.83;;;;;;;;;;2090393;28;20492;-61
2023/12/09 00:36:42;;;;;;;64.63;27.42;;;;;;;;;;2090440;28;20044;-61
2023/12/09 00:37:43;;;;;;;64.20;25.85;;;;;;;;;;2089976;28;20108;-61
2023/12/09 00:38:44;;;;;;;74.93;27.02;;;;;;;;;;2090541;28;20028;-62
2023/12/09 00:39:45;;;;;;;63.90;26.15;;;;;;;;;;2090189;28;20044;-61
2023/12/09 00:40:45;;;;;;;68.10;26.88;;;;;;;;;;2090227;28;20052;-61
2023/12/09 00:41:46;;;;;;;61.38;25.70;;;;;;;;;;2090238;28;20053;-61
2023/12/09 00:42:47;;;;;;;65.43;25.77;;;;;;;;;;2090680;28;20049;-61
2023/12/09 00:43:47;;;;;;;73.50;28.73;;;;;;;;;;2090721;28;20072;-61
2023/12/09 00:44:48;;;;;;;66.75;26.17;;;;;;;;;;2090356;28;20473;-62
2023/12/09 00:45:49;;;;;;;60.28;23.60;;;;;;;;;;2090323;28;20033;-61
2023/12/09 00:46:50;;;;;;;62.83;25.00;;;;;;;;;;2090326;28;20052;-61
2023/12/09 00:47:51;;;;;;;56.10;19.98;;;;;;;;;;2090178;28;20037;-61
2023/12/09 00:48:51;;;;;;;61.80;23.92;;;;;;;;;;2090241;28;20029;-61
2023/12/09 00:49:52;;;;;;;69.05;28.08;;;;;;;;;;2090427;28;20419;-61
2023/12/09 00:50:53;;;;;;;62.88;23.85;;;;;;;;;;2090555;28;20512;-61
2023/12/09 00:51:53;;;;;;;56.33;23.92;;;;;;;;;;2089807;28;20037;-61
2023/12/09 00:52:54;;;;;;;70.07;28.85;;;;;;;;;;2090305;28;20040;-61
2023/12/09 00:53:55;;;;;;;57.65;20.60;;;;;;;;;;2090192;28;20029;-62
2023/12/09 00:54:56;;;;;;;65.32;25.92;;;;;;;;;;2090335;28;20036;-61
2023/12/09 00:55:56;;;;;;;77.45;27.67;;;;;;;;;;2090409;28;20377;-61
2023/12/09 00:56:57;;;;;;;66.80;27.75;;;;;;;;;;2089882;28;20473;-62
2023/12/09 00:57:58;;;;;;;67.65;28.27;;;;;;;;;;2090381;28;20127;-62
2023/12/09 00:58:58;;;;;;;65.22;26.63;;;;;;;;;;2090090;28;20461;-61
2023/12/09 00:59:59;;;;;;;68.57;27.05;;;;;;;;;;2090011;28;20389;-62
2023/12/09 01:01:00;;;;;;;72.63;28.60;;;;;;;;;;2090485;28;20037;-62
2023/12/09 01:02:01;;;;;;;66.82;26.27;;;;;;;;;;2089150;28;20040;-61
2023/12/09 01:03:01;;;;;;;73.15;27.13;;;;;;;;;;2090128;28;20051;-61
2023/12/09 01:04:03;;;;;;;71.70;27.92;;;;;;;;;;2089545;28;20045;-61
2023/12/09 01:05:04;;;;;;;70.10;24.85;;;;;;;;;;2089664;28;20420;-61
2023/12/09 01:06:05;;;;;;;65.78;27.52;;;;;;;;;;2090195;28;20104;-62
2023/12/09 01:07:05;;;;;;;71.03;25.17;;;;;;;;;;2090012;28;20040;-62
2023/12/09 01:08:06;;;;;;;68.22;26.80;;;;;;;;;;2090271;28;20036;-62
2023/12/09 01:09:07;;;;;;;72.65;28.38;;;;;;;;;;2089621;28;20037;-62
2023/12/09 01:10:08;;;;;;;74.43;30.77;;;;;;;;;;2090019;28;20500;-62
2023/12/09 01:11:08;;;;;;;74.20;27.90;;;;;;;;;;2090283;28;20084;-62
2023/12/09 01:12:09;;;;;;;74.45;30.52;;;;;;;;;;2091660;28;20029;-62
2023/12/09 01:13:10;;;;;;;69.15;28.00;;;;;;;;;;2091630;28;20040;-62
2023/12/09 01:14:10;;;;;;;83.53;30.02;;;;;;;;;;2091699;28;20037;-62
2023/12/09 01:15:11;;;;;;;77.35;26.33;;;;;;;;;;2091411;28;20049;-61
2023/12/09 01:16:12;;;;;;;73.10;28.48;;;;;;;;;;2091750;28;20388;-61
2023/12/09 01:17:13;;;;;;;72.57;27.50;;;;;;;;;;2092229;28;20041;-61
2023/12/09 01:18:13;;;;;;;67.45;27.33;;;;;;;;;;2091777;28;20025;-61
2023/12/09 01:19:14;;;;;;;72.18;26.85;;;;;;;;;;2092031;28;20033;-61
2023/12/09 01:20:15;;;;;;;89.53;32.00;;;;;;;;;;2091753;28;20106;-62
2023/12/09 01:21:16;;;;;;;87.45;31.02;;;;;;;;;;2092044;28;20484;-62
2023/12/09 01:22:16;;;;;;;78.00;27.10;;;;;;;;;;2091666;28;20036;-61
2023/12/09 01:23:17;;;;;;;68.60;24.63;;;;;;;;;;2091971;28;20044;-61
2023/12/09 01:24:19;;;;;;;82.40;28.10;;;;;;;;;;2091463;28;20080;-61
2023/12/09 01:25:19;;;;;;;77.35;28.85;;;;;;;;;;2091904;28;20029;-61
2023/12/09 01:26:20;;;;;;;77.32;28.13;;;;;;;;;;2092162;28;20469;-61
2023/12/09 01:27:21;;;;;;;88.60;30.02;;;;;;;;;;2091685;28;20041;-61
2023/12/09 01:28:21;;;;;;;80.97;27.70;;;;;;;;;;2091946;28;20041;-62
2023/12/09 01:29:22;;;;;;;77.47;28.50;;;;;;;;;;2091749;28;20044;-62
2023/12/09 01:30:23;;;;;;;78.15;30.42;;;;;;;;;;2091584;28;20040;-62
2023/12/09 01:31:24;;;;;;;81.95;31.25;;;;;;;;;;2091867;28;20118;-61
2023/12/09 01:32:24;;;;;;;87.82;30.10;;;;;;;;;;2091793;28;20033;-62
2023/12/09 01:33:25;;;;;;;78.80;30.00;;;;;;;;;;2091612;28;20071;-62
2023/12/09 01:34:26;;;;;;;82.50;28.20;;;;;;;;;;2091638;28;20497;-61
2023/12/09 01:35:26;;;;;;;87.45;31.20;;;;;;;;;;2091937;28;20032;-62
2023/12/09 01:36:27;;;;;;;89.57;31.50;;;;;;;;;;2091375;28;20116;-62
2023/12/09 01:37:28;;;;;;;85.70;27.63;;;;;;;;;;2091630;28;20044;-62
2023/12/09 01:38:29;;;;;;;85.13;30.90;;;;;;;;;;2091392;28;20049;-62
2023/12/09 01:39:29;;;;;;;84.82;30.58;;;;;;;;;;2091639;28;20041;-62
2023/12/09 01:40:30;;;;;;;88.82;29.05;;;;;;;;;;2091615;28;20048;-62
2023/12/09 01:41:31;;;;;;;92.97;29.85;;;;;;;;;;2091925;28;20068;-62
2023/12/09 01:42:32;;;;;;;88.25;31.30;;;;;;;;;;2091889;28;20045;-62
2023/12/09 01:43:32;;;;;;;86.38;31.70;;;;;;;;;;2091613;28;20048;-62
2023/12/09 01:44:33;;;;;;;98.40;32.13;;;;;;;;;;2091765;28;20060;-61
2023/12/09 01:45:34;;;;;;;93.43;32.05;;;;;;;;;;2091449;28;20087;-62
2023/12/09 01:46:34;;;;;;;85.28;28.70;;;;;;;;;;2091553;28;20080;-62
2023/12/09 01:47:36;;;;;;;96.57;29.10;;;;;;;;;;2091564;28;20048;-61
2023/12/09 01:48:37;;;;;;;89.07;28.42;;;;;;;;;;2091830;28;20373;-62
2023/12/09 01:49:37;;;;;;;108.18;33.53;;;;;;;;;;2091824;28;20052;-62
2023/12/09 01:50:38;;;;;;;103.93;30.58;;;;;;;;;;2091776;28;20071;-62
2023/12/09 01:51:39;;;;;;;112.05;30.77;;;;;;;;;;2091492;28;20069;-62
2023/12/09 01:52:40;;;;;;;113.90;32.17;;;;;;;;;;2090808;28;20500;-62
2023/12/09 01:53:40;;;;;;;118.18;34.05;;;;;;;;;;2099530;28;20381;-62
2023/12/09 01:54:41;;;;;;;121.78;36.78;;;;;;;;;;2099110;28;20072;-61
2023/12/09 01:55:42;;;;;;;129.60;38.58;;;;;;;;;;2082662;28;20076;-62
2023/12/09 01:56:43;;;;;;;140.13;39.08;;;;;;;;;;2083217;28;20076;-62
2023/12/09 01:57:43;;;;;;;147.43;39.67;;;;;;;;;;2090314;28;20098;-61
2023/12/09 01:58:45;;;;;;;163.52;37.00;;;;;;;;;;2091364;28;20037;-62
2023/12/09 01:59:45;;;;;;;159.10;40.47;;;;;;;;;;2091005;28;20469;-62
2023/12/09 02:00:46;;;;;;;168.10;41.95;;;;;;;;;;2090772;28;20064;-61
2023/12/09 02:01:47;;;;;;;144.98;38.95;;;;;;;;;;2090652;28;20056;-62
2023/12/09 02:02:47;;;;;;;191.20;43.65;;;;;;;;;;2091434;28;20049;-61
2023/12/09 02:03:49;;;;;;;233.50;42.58;;;;;;;;;;2091023;28;20438;-62
2023/12/09 02:04:50;;;;;;;262.67;47.70;;;;;;;;;;2091231;28;20397;-61
2023/12/09 02:05:51;;;;;;;200.98;43.75;;;;;;;;;;2091845;28;20044;-61
2023/12/09 02:06:54;;;;;;;150.43;39.58;;;;;;;;;;2091718;28;20052;-61
2023/12/09 02:07:55;;;;;;;190.75;42.85;;;;;;;;;;2091155;28;20048;-61
2023/12/09 02:08:57;;;;;;;258.02;46.83;;;;;;;;;;2090198;28;20045;-61
2023/12/09 02:09:58;;;;;;;282.88;46.72;;;;;;;;;;2090734;28;20036;-62
2023/12/09 02:11:08;;;;;;;295.58;52.80;;;;;;;;;;2091277;28;20408;-62
2023/12/09 02:12:16;;;;;;;188.23;43.75;;;;;;;;;;2091152;28;20044;-62
2023/12/09 02:13:18;;;;;;;274.65;49.75;;;;;;;;;;2091031;28;20120;-62
2023/12/09 02:14:25;;;;;;;252.63;46.78;;;;;;;;;;2099249;28;20420;-62
2023/12/09 02:15:32;;;;;;;299.58;48.00;;;;;;;;;;2098048;28;20040;-62
2023/12/09 02:16:53;;;;;;;159.88;39.55;;;;;;;;;;2090551;28;20040;-61
2023/12/09 02:17:58;;;;;;;190.90;40.55;;;;;;;;;;2090910;28;20044;-61
2023/12/09 02:18:58;;;;;;;240.45;43.88;;;;;;;;;;2091525;28;20036;-62
2023/12/09 02:20:00;;;;;;;235.18;47.22;;;;;;;;;;2090612;28;20052;-62
2023/12/09 02:21:01;;;;;;;195.13;44.35;;;;;;;;;;2090829;28;20036;-61
2023/12/09 02:22:06;;;;;;;196.98;43.95;;;;;;;;;;2090446;28;20045;-61
2023/12/09 02:23:07;;;;;;;202.93;42.70;;;;;;;;;;2091188;28;20025;-61
2023/12/09 02:24:07;;;;;;;196.50;42.00;;;;;;;;;;2091379;28;20385;-61
2023/12/09 02:25:08;;;;;;;293.77;48.17;;;;;;;;;;2091213;28;20071;-61
2023/12/09 02:26:12;;;;;;;416.15;57.90;;;;;;;;;;2091480;28;20032;-61
2023/12/09 02:27:14;;;;;;;271.08;47.38;;;;;;;;;;2090823;28;20045;-61
2023/12/09 02:28:17;;;;;;;458.80;59.35;;;;;;;;;;2099112;28;20048;-61
2023/12/09 02:29:18;;;;;;;309.38;51.65;;;;;;;;;;2106388;28;20036;-61
2023/12/09 02:30:31;;;;;;;374.83;55.65;;;;;;;;;;2090753;28;20507;-61
2023/12/09 02:31:31;;;;;;;422.23;54.85;;;;;;;;;;2090895;28;20037;-62
2023/12/09 02:32:32;;;;;;;348.52;53.17;;;;;;;;;;2098673;28;20045;-62
2023/12/09 02:33:33;;;;;;;390.23;56.83;;;;;;;;;;2098961;28;20066;-62
2023/12/09 02:34:36;;;;;;;288.40;50.38;;;;;;;;;;2082031;28;20056;-61
2023/12/09 02:35:37;;;;;;;407.15;59.25;;;;;;;;;;2090343;28;20091;-62
2023/12/09 02:36:38;;;;;;;412.52;62.17;;;;;;;;;;2091278;28;20059;-61
2023/12/09 02:37:39;;;;;;;364.67;56.08;;;;;;;;;;2090474;28;20080;-62
2023/12/09 02:38:40;;;;;;;215.20;45.25;;;;;;;;;;2090829;28;20036;-60
2023/12/09 02:39:41;;;;;;;233.13;46.55;;;;;;;;;;2106600;28;20044;-62
2023/12/09 02:40:41;;;;;;;337.08;53.95;;;;;;;;;;2107055;28;20058;-62
2023/12/09 02:41:42;;;;;;;441.08;59.70;;;;;;;;;;2090945;28;20075;-61
2023/12/09 02:42:43;;;;;;;416.17;58.65;;;;;;;;;;2090524;28;20108;-61
2023/12/09 02:43:44;;;;;;;388.65;56.35;;;;;;;;;;2098835;28;20033;-59
2023/12/09 02:44:44;;;;;;;236.00;44.38;;;;;;;;;;2106904;28;20059;-61
2023/12/09 02:45:45;;;;;;;295.20;47.67;;;;;;;;;;2091377;28;20115;-60
2023/12/09 02:46:53;;;;;;;430.98;61.25;;;;;;;;;;2091587;28;20112;-60
2023/12/09 02:47:54;;;;;;;238.63;46.75;;;;;;;;;;2091744;28;20037;-63
2023/12/09 02:48:54;;;;;;;257.00;47.85;;;;;;;;;;2091437;28;20029;-60
2023/12/09 02:49:55;;;;;;;312.48;50.83;;;;;;;;;;2091382;28;20048;-61
2023/12/09 02:50:56;;;;;;;290.90;51.35;;;;;;;;;;2091655;28;20072;-61
2023/12/09 02:51:56;;;;;;;252.38;47.65;;;;;;;;;;2091263;28;20045;-60
2023/12/09 02:52:57;;;;;;;229.68;46.08;;;;;;;;;;2091476;28;20035;-61
2023/12/09 02:53:58;;;;;;;181.30;41.55;;;;;;;;;;2091593;28;20369;-61
2023/12/09 02:54:59;;;;;;;261.42;43.83;;;;;;;;;;2090997;28;20044;-60
2023/12/09 02:55:59;;;;;;;199.38;43.50;;;;;;;;;;2091479;28;20033;-61
2023/12/09 02:57:00;;;;;;;195.88;41.80;;;;;;;;;;2091123;28;20049;-61
2023/12/09 02:58:01;;;;;;;192.98;42.88;;;;;;;;;;2091414;28;20047;-61
2023/12/09 02:59:01;;;;;;;189.63;43.28;;;;;;;;;;2091077;28;20045;-61
2023/12/09 03:00:05;;;;;;;172.45;42.80;;;;;;;;;;2091033;28;20029;-61
2023/12/09 03:01:06;;;;;;;165.57;38.00;;;;;;;;;;2091275;28;20037;-62
2023/12/09 03:02:06;;;;;;;139.35;38.75;;;;;;;;;;2090099;28;20489;-62
2023/12/09 03:03:07;;;;;;;173.02;41.70;;;;;;;;;;2091455;28;20029;-61
2023/12/09 03:04:08;;;;;;;156.60;39.92;;;;;;;;;;2091176;28;20065;-61
2023/12/09 03:05:09;;;;;;;149.30;36.10;;;;;;;;;;2091091;28;20037;-61
2023/12/09 03:06:10;;;;;;;190.80;41.83;;;;;;;;;;2091024;28;20488;-60
2023/12/09 03:07:11;;;;;;;150.60;39.08;;;;;;;;;;2090693;28;20057;-61
2023/12/09 03:08:11;;;;;;;129.82;35.40;;;;;;;;;;2090887;28;20400;-61
2023/12/09 03:09:12;;;;;;;143.93;40.25;;;;;;;;;;2090978;28;20044;-61
2023/12/09 03:10:13;;;;;;;155.45;38.03;;;;;;;;;;2091155;28;20025;-62
2023/12/09 03:11:13;;;;;;;152.93;42.53;;;;;;;;;;2091298;28;20045;-62
2023/12/09 03:12:14;;;;;;;138.38;40.53;;;;;;;;;;2090710;28;20076;-61
2023/12/09 03:13:15;;;;;;;119.38;37.60;;;;;;;;;;2090882;28;20090;-61
2023/12/09 03:14:16;;;;;;;117.40;36.88;;;;;;;;;;2090668;28;20056;-61
2023/12/09 03:15:16;;;;;;;133.65;37.00;;;;;;;;;;2090836;28;20473;-61
2023/12/09 03:16:17;;;;;;;132.00;39.35;;;;;;;;;;2090922;28;20033;-61
2023/12/09 03:17:18;;;;;;;127.20;39.13;;;;;;;;;;2090888;28;20044;-61
2023/12/09 03:18:19;;;;;;;114.13;38.83;;;;;;;;;;2090653;28;20052;-61
2023/12/09 03:19:20;;;;;;;112.53;36.20;;;;;;;;;;2090652;28;20036;-61
2023/12/09 03:20:20;;;;;;;114.22;37.35;;;;;;;;;;2091109;28;20033;-61
2023/12/09 03:21:21;;;;;;;113.07;36.08;;;;;;;;;;2090915;28;20478;-62
2023/12/09 03:22:22;;;;;;;123.35;38.65;;;;;;;;;;2091002;28;20467;-61
2023/12/09 03:23:23;;;;;;;109.05;34.90;;;;;;;;;;2091028;28;20428;-61
2023/12/09 03:24:23;;;;;;;102.20;33.63;;;;;;;;;;2090487;28;20508;-61
2023/12/09 03:25:24;;;;;;;103.70;36.30;;;;;;;;;;2090100;28;20040;-62
2023/12/09 03:26:25;;;;;;;91.90;32.80;;;;;;;;;;2091373;28;20083;-61
2023/12/09 03:27:25;;;;;;;98.95;33.95;;;;;;;;;;2090918;28;20048;-61
2023/12/09 03:28:26;;;;;;;105.88;36.42;;;;;;;;;;2090713;28;20037;-61
2023/12/09 03:29:27;;;;;;;103.53;34.08;;;;;;;;;;2090853;28;20076;-61
2023/12/09 03:30:28;;;;;;;93.60;34.28;;;;;;;;;;2090875;28;20076;-61
2023/12/09 03:31:28;;;;;;;98.68;35.13;;;;;;;;;;2091147;28;20033;-60
2023/12/09 03:32:29;;;;;;;99.85;37.28;;;;;;;;;;2090983;28;20490;-62
2023/12/09 03:33:30;;;;;;;108.75;38.33;;;;;;;;;;2090524;28;20419;-61
2023/12/09 03:34:30;;;;;;;93.32;33.45;;;;;;;;;;2089584;28;20518;-61
2023/12/09 03:35:31;;;;;;;96.50;33.65;;;;;;;;;;2089824;28;20045;-61
2023/12/09 03:36:32;;;;;;;94.18;34.38;;;;;;;;;;2090696;28;20056;-61
2023/12/09 03:37:33;;;;;;;101.53;37.28;;;;;;;;;;2090714;28;20045;-62
2023/12/09 03:38:33;;;;;;;99.93;37.53;;;;;;;;;;2090437;28;20078;-61
2023/12/09 03:39:34;;;;;;;87.15;32.90;;;;;;;;;;2090862;28;20116;-61
2023/12/09 03:40:35;;;;;;;89.18;34.05;;;;;;;;;;2090772;28;20040;-60
2023/12/09 03:41:36;;;;;;;93.00;34.63;;;;;;;;;;2090861;28;20028;-62
2023/12/09 03:42:36;;;;;;;110.88;37.88;;;;;;;;;;2090655;28;20033;-61
2023/12/09 03:43:37;;;;;;;88.50;32.85;;;;;;;;;;2090765;28;20064;-61
2023/12/09 03:44:38;;;;;;;106.15;37.17;;;;;;;;;;2090573;28;20088;-62
2023/12/09 03:45:40;;;;;;;94.55;35.20;;;;;;;;;;2090351;28;20068;-62
2023/12/09 03:46:41;;;;;;;95.70;33.42;;;;;;;;;;2090981;28;20049;-61
2023/12/09 03:47:41;;;;;;;90.65;34.88;;;;;;;;;;2090732;28;20045;-61
2023/12/09 03:48:42;;;;;;;94.15;37.13;;;;;;;;;;2090698;28;20405;-61
2023/12/09 03:49:43;;;;;;;95.50;36.35;;;;;;;;;;2090614;28;20021;-61
2023/12/09 03:50:44;;;;;;;82.90;29.65;;;;;;;;;;2090721;28;20040;-61
2023/12/09 03:51:44;;;;;;;85.28;33.15;;;;;;;;;;2090479;28;20045;-61
2023/12/09 03:52:45;;;;;;;84.25;32.92;;;;;;;;;;2090285;28;20056;-61
2023/12/09 03:53:46;;;;;;;88.13;33.92;;;;;;;;;;2090400;28;20049;-62
2023/12/09 03:54:46;;;;;;;85.68;32.97;;;;;;;;;;2090531;28;20029;-62
2023/12/09 03:55:48;;;;;;;85.88;33.08;;;;;;;;;;2090178;28;20369;-61
2023/12/09 03:56:49;;;;;;;92.22;35.70;;;;;;;;;;2089923;28;20032;-62
2023/12/09 03:57:49;;;;;;;85.65;32.70;;;;;;;;;;2089139;28;20083;-62
2023/12/09 03:58:50;;;;;;;84.65;35.13;;;;;;;;;;2090266;28;20036;-62
2023/12/09 03:59:51;;;;;;;90.43;34.67;;;;;;;;;;2090239;28;20028;-61
2023/12/09 04:00:52;;;;;;;94.78;36.35;;;;;;;;;;2090784;28;20420;-61
2023/12/09 04:01:52;;;;;;;90.35;34.85;;;;;;;;;;2089787;28;20069;-61
2023/12/09 04:02:53;;;;;;;80.35;34.38;;;;;;;;;;2090552;28;20032;-61
2023/12/09 04:03:54;;;;;;;98.78;36.08;;;;;;;;;;2090663;28;20048;-62
2023/12/09 04:04:54;;;;;;;87.53;34.53;;;;;;;;;;2090800;28;20044;-61
2023/12/09 04:05:55;;;;;;;87.68;33.50;;;;;;;;;;2090623;28;20036;-62
2023/12/09 04:06:56;;;;;;;89.43;33.47;;;;;;;;;;2090438;28;20037;-61
2023/12/09 04:07:57;;;;;;;76.35;30.83;;;;;;;;;;2090552;28;20354;-61
2023/12/09 04:08:57;;;;;;;82.53;33.83;;;;;;;;;;2090646;28;20481;-62
2023/12/09 04:09:58;;;;;;;73.22;32.45;;;;;;;;;;2090385;28;20028;-62
2023/12/09 04:10:59;;;;;;;87.22;33.72;;;;;;;;;;2090411;28;20067;-62
2023/12/09 04:12:00;;;;;;;85.55;33.20;;;;;;;;;;2090378;28;20033;-62
2023/12/09 04:13:00;;;;;;;82.38;33.63;;;;;;;;;;2090442;28;20070;-61
2023/12/09 04:14:01;;;;;;;82.80;33.67;;;;;;;;;;2090459;28;20056;-62
2023/12/09 04:15:03;;;;;;;83.75;32.55;;;;;;;;;;2090725;28;20041;-61
2023/12/09 04:16:04;;;;;;;83.53;32.97;;;;;;;;;;2090473;28;20397;-62
2023/12/09 04:17:04;;;;;;;85.82;31.85;;;;;;;;;;2089054;28;20068;-62
2023/12/09 04:18:05;;;;;;;83.32;32.03;;;;;;;;;;2089147;28;20029;-62
2023/12/09 04:19:06;;;;;;;75.70;31.70;;;;;;;;;;2090384;28;20110;-62
2023/12/09 04:20:08;;;;;;;88.30;33.13;;;;;;;;;;2090366;28;20053;-62
2023/12/09 04:21:09;;;;;;;83.65;32.45;;;;;;;;;;2090349;28;20029;-62
2023/12/09 04:22:10;;;;;;;78.20;31.33;;;;;;;;;;2090268;28;20029;-62
2023/12/09 04:23:11;;;;;;;86.72;29.92;;;;;;;;;;2090372;28;20029;-62
2023/12/09 04:24:11;;;;;;;80.85;31.55;;;;;;;;;;2090152;28;20033;-62
2023/12/09 04:25:12;;;;;;;86.35;32.45;;;;;;;;;;2090241;28;20056;-61
2023/12/09 04:26:13;;;;;;;82.93;32.60;;;;;;;;;;2090314;28;20048;-62
2023/12/09 04:27:14;;;;;;;84.13;32.10;;;;;;;;;;2090260;28;20112;-62
2023/12/09 04:28:15;;;;;;;87.45;31.75;;;;;;;;;;2090580;28;20048;-62
2023/12/09 04:29:15;;;;;;;79.07;28.00;;;;;;;;;;2090327;28;20045;-62
2023/12/09 04:30:16;;;;;;;78.63;30.77;;;;;;;;;;2090140;28;20045;-62
2023/12/09 04:31:17;;;;;;;87.22;32.17;;;;;;;;;;2090784;28;20037;-62
2023/12/09 04:32:17;;;;;;;69.72;28.10;;;;;;;;;;2090377;28;20045;-61
2023/12/09 04:33:18;;;;;;;86.30;31.80;;;;;;;;;;2090622;28;20033;-62
2023/12/09 04:34:19;;;;;;;84.35;33.80;;;;;;;;;;2089148;28;20397;-62
2023/12/09 04:35:20;;;;;;;83.45;31.92;;;;;;;;;;2089633;28;20472;-62
2023/12/09 04:36:20;;;;;;;83.82;31.40;;;;;;;;;;2090868;28;20017;-62
2023/12/09 04:37:22;;;;;;;80.10;28.65;;;;;;;;;;2089807;28;20052;-62
2023/12/09 04:38:23;;;;;;;80.38;30.33;;;;;;;;;;2089620;28;20420;-62
2023/12/09 04:39:23;;;;;;;87.10;30.58;;;;;;;;;;2090622;28;20036;-62
2023/12/09 04:40:24;;;;;;;76.22;28.83;;;;;;;;;;2090512;28;20025;-61
2023/12/09 04:41:25;;;;;;;74.43;28.52;;;;;;;;;;2090267;28;20035;-62
2023/12/09 04:42:25;;;;;;;70.80;27.70;;;;;;;;;;2090501;28;20025;-61
2023/12/09 04:43:27;;;;;;;64.30;28.77;;;;;;;;;;2089920;28;20048;-62
2023/12/09 04:44:27;;;;;;;65.43;28.83;;;;;;;;;;2090232;28;20052;-62
2023/12/09 04:45:28;;;;;;;69.97;27.20;;;;;;;;;;2090493;28;20041;-62
2023/12/09 04:46:29;;;;;;;64.72;27.58;;;;;;;;;;2090344;28;20063;-62
2023/12/09 04:47:29;;;;;;;70.53;27.65;;;;;;;;;;2089164;28;20056;-61
2023/12/09 04:48:30;;;;;;;69.93;26.25;;;;;;;;;;2089529;28;20064;-62
2023/12/09 04:49:31;;;;;;;73.45;26.90;;;;;;;;;;2089991;28;20056;-62
2023/12/09 04:50:31;;;;;;;70.88;26.77;;;;;;;;;;2090286;28;20037;-62
2023/12/09 04:51:32;;;;;;;67.22;25.80;;;;;;;;;;2090265;28;20412;-62
2023/12/09 04:52:33;;;;;;;72.90;29.60;;;;;;;;;;2090343;28;20036;-62
2023/12/09 04:53:34;;;;;;;86.70;31.25;;;;;;;;;;2090197;28;20041;-62
2023/12/09 04:54:34;;;;;;;71.10;28.67;;;;;;;;;;2090412;28;20032;-62
2023/12/09 04:55:35;;;;;;;74.57;27.77;;;;;;;;;;2090234;28;20069;-62
2023/12/09 04:56:36;;;;;;;74.50;28.17;;;;;;;;;;2090299;28;20037;-62
2023/12/09 04:57:37;;;;;;;68.63;26.40;;;;;;;;;;2090416;28;20044;-63
2023/12/09 04:58:38;;;;;;;78.15;28.95;;;;;;;;;;2090023;28;20045;-62
2023/12/09 04:59:38;;;;;;;83.68;31.05;;;;;;;;;;2090482;28;20373;-62
2023/12/09 05:00:39;;;;;;;74.82;29.60;;;;;;;;;;2090437;28;20480;-62
2023/12/09 05:01:40;;;;;;;78.43;30.02;;;;;;;;;;2089624;28;20056;-62
2023/12/09 05:02:41;;;;;;;71.60;28.27;;;;;;;;;;2090522;28;20033;-61
2023/12/09 05:03:41;;;;;;;70.65;24.83;;;;;;;;;;2090191;28;20056;-62
2023/12/09 05:04:42;;;;;;;73.47;28.42;;;;;;;;;;2090130;28;20416;-61
2023/12/09 05:05:43;;;;;;;67.18;27.42;;;;;;;;;;2090269;28;20072;-61
2023/12/09 05:06:44;;;;;;;73.45;30.55;;;;;;;;;;2090427;28;20021;-62
2023/12/09 05:07:44;;;;;;;69.13;26.90;;;;;;;;;;2090243;28;20063;-62
2023/12/09 05:08:45;;;;;;;60.53;24.27;;;;;;;;;;2090444;28;20120;-62
2023/12/09 05:09:46;;;;;;;75.97;27.92;;;;;;;;;;2090159;28;20060;-62
2023/12/09 05:10:47;;;;;;;69.60;28.02;;;;;;;;;;2089745;28;20045;-61
2023/12/09 05:11:48;;;;;;;73.40;28.98;;;;;;;;;;2090159;28;20028;-62
2023/12/09 05:12:49;;;;;;;81.25;29.63;;;;;;;;;;2090291;28;20041;-62
2023/12/09 05:13:49;;;;;;;72.18;28.30;;;;;;;;;;2090147;28;20048;-62
2023/12/09 05:14:50;;;;;;;68.35;25.70;;;;;;;;;;2090211;28;20029;-62
2023/12/09 05:15:51;;;;;;;72.50;28.98;;;;;;;;;;2090347;28;20044;-62
2023/12/09 05:16:52;;;;;;;79.55;28.85;;;;;;;;;;2090581;28;20037;-62
2023/12/09 05:17:53;;;;;;;76.30;29.30;;;;;;;;;;2090225;28;20025;-62
2023/12/09 05:18:54;;;;;;;75.65;28.13;;;;;;;;;;2090155;28;20048;-62
2023/12/09 05:19:54;;;;;;;76.53;28.17;;;;;;;;;;2090212;28;20070;-62
2023/12/09 05:20:55;;;;;;;71.97;27.45;;;;;;;;;;2090166;28;20052;-61
2023/12/09 05:21:56;;;;;;;74.28;26.25;;;;;;;;;;2090151;28;20021;-61
2023/12/09 05:22:56;;;;;;;78.18;28.73;;;;;;;;;;2090353;28;20040;-61
2023/12/09 05:23:57;;;;;;;79.75;28.40;;;;;;;;;;2090071;28;20036;-61
2023/12/09 05:24:58;;;;;;;85.95;30.95;;;;;;;;;;2090180;28;20063;-61
2023/12/09 05:25:59;;;;;;;87.65;30.25;;;;;;;;;;2090093;28;20480;-61
2023/12/09 05:27:00;;;;;;;88.20;26.58;;;;;;;;;;2090280;28;20028;-61
2023/12/09 05:28:00;;;;;;;78.50;29.13;;;;;;;;;;2090306;28;20037;-63
2023/12/09 05:29:03;;;;;;;75.55;26.13;;;;;;;;;;2089814;28;20049;-61
2023/12/09 05:30:04;;;;;;;85.85;28.30;;;;;;;;;;2089918;28;20044;-61
2023/12/09 05:31:05;;;;;;;84.05;27.98;;;;;;;;;;2090328;28;20041;-62
2023/12/09 05:32:06;;;;;;;80.38;24.58;;;;;;;;;;2090452;28;20389;-61
2023/12/09 05:33:06;;;;;;;82.82;27.65;;;;;;;;;;2089947;28;20040;-61
2023/12/09 05:34:07;;;;;;;96.88;28.95;;;;;;;;;;2090026;28;20040;-61
2023/12/09 05:35:10;;;;;;;85.25;26.50;;;;;;;;;;2090004;28;20033;-62
2023/12/09 05:36:10;;;;;;;85.47;28.20;;;;;;;;;;2090032;28;20037;-61
2023/12/09 05:37:11;;;;;;;94.22;29.65;;;;;;;;;;2089762;28;20037;-62
2023/12/09 05:38:12;;;;;;;95.35;27.73;;;;;;;;;;2090367;28;20514;-61
2023/12/09 05:39:13;;;;;;;95.60;26.40;;;;;;;;;;2090424;28;20033;-62
2023/12/09 05:40:13;;;;;;;94.07;27.10;;;;;;;;;;2090270;28;20109;-62
2023/12/09 05:41:14;;;;;;;93.03;28.73;;;;;;;;;;2090305;28;20496;-61
2023/12/09 05:42:15;;;;;;;105.82;31.08;;;;;;;;;;2090297;28;20048;-61
2023/12/09 05:43:16;;;;;;;87.55;25.35;;;;;;;;;;2089660;28;20084;-61
2023/12/09 05:44:16;;;;;;;94.65;29.00;;;;;;;;;;2090030;28;20056;-61
2023/12/09 05:45:17;;;;;;;93.55;27.35;;;;;;;;;;2089956;28;20032;-61
2023/12/09 05:46:21;;;;;;;102.70;31.35;;;;;;;;;;2090291;28;20488;-61
2023/12/09 05:47:22;;;;;;;108.50;29.92;;;;;;;;;;2089609;28;20048;-61
2023/12/09 05:48:23;;;;;;;101.60;29.02;;;;;;;;;;2089661;28;20045;-62
2023/12/09 05:49:24;;;;;;;114.07;31.75;;;;;;;;;;2090238;28;20033;-62
2023/12/09 05:50:24;;;;;;;110.30;32.58;;;;;;;;;;2090232;28;20033;-61
2023/12/09 05:51:25;;;;;;;105.20;31.00;;;;;;;;;;2090199;28;20049;-61
2023/12/09 05:52:26;;;;;;;105.45;30.85;;;;;;;;;;2090070;28;20400;-61
2023/12/09 05:53:27;;;;;;;93.93;26.05;;;;;;;;;;2089579;28;20052;-61